sensor_id;sensor_type;location;lat;lon;timestamp;pressure;altitude;pressure_sealevel;temperature;humidity
23589;BME280;11972;48.078;11.876;2023-11-19T00:02:32;95614.31;;;4.91;100.00
23589;BME280;11972;48.078;11.876;2023-11-19T00:06:32;95604.94;;;4.98;100.00
23589;BME280;11972;48.078;11.876;2023-11-19T00:10:33;95607.94;;;5.04;100.00
23589;BME280;11972;48.078;11.876;2023-11-19T00:14:33;95609.28;;;5.08;100.00
23589;BME280;11972;48.078;11.876;2023-11-19T00:18:35;95594.13;;;5.11;100.00
23589;BME280;11972;48.078;11.876;2023-11-19T00:22:36;95587.75;;;5.14;100.00
23589;BME280;11972;48.078;11.876;2023-11-19T00:26:37;95580.28;;;5.19;100.00
23589;BME280;11972;48.078;11.876;2023-11-19T00:30:37;95575.72;;;5.21;100.00
23589;BME280;11972;48.078;11.876;2023-11-19T00:34:37;95568.56;;;5.23;100.00
23589;BME280;11972;48.078;11.876;2023-11-19T00:38:38;95564.78;;;5.26;100.00
23589;BME280;11972;48.078;11.876;2023-11-19T00:42:38;95556.50;;;5.30;100.00
23589;BME280;11972;48.078;11.876;2023-11-19T00:46:39;95551.94;;;5.32;100.00
23589;BME280;11972;48.078;11.876;2023-11-19T00:50:39;95555.91;;;5.36;100.00
23589;BME280;11972;48.078;11.876;2023-11-19T00:54:44;95555.97;;;5.44;100.00
23589;BME280;11972;48.078;11.876;2023-11-19T00:58:44;95550.81;;;5.53;100.00
23589;BME280;11972;48.078;11.876;2023-11-19T01:02:45;95546.94;;;5.57;100.00
23589;BME280;11972;48.078;11.876;2023-11-19T01:06:46;95549.38;;;5.58;100.00
23589;BME280;11972;48.078;11.876;2023-11-19T01:10:46;95545.28;;;5.56;100.00
23589;BME280;11972;48.078;11.876;2023-11-19T01:14:47;95556.59;;;5.56;100.00
23589;BME280;11972;48.078;11.876;2023-11-19T01:18:48;95538.38;;;5.55;100.00
23589;BME280;11972;48.078;11.876;2023-11-19T01:22:50;95545.28;;;5.56;100.00
23589;BME280;11972;48.078;11.876;2023-11-19T01:26:50;95535.75;;;5.55;100.00
23589;BME280;11972;48.078;11.876;2023-11-19T01:30:51;95531.50;;;5.54;100.00
23589;BME280;11972;48.078;11.876;2023-11-19T01:34:52;95525.44;;;5.53;100.00
23589;BME280;11972;48.078;11.876;2023-11-19T01:38:52;95514.66;;;5.56;100.00
23589;BME280;11972;48.078;11.876;2023-11-19T01:42:53;95513.69;;;5.57;100.00
23589;BME280;11972;48.078;11.876;2023-11-19T01:46:54;95498.47;;;5.61;100.00
23589;BME280;11972;48.078;11.876;2023-11-19T01:50:56;95501.97;;;5.69;100.00
23589;BME280;11972;48.078;11.876;2023-11-19T01:54:57;95509.22;;;5.76;100.00
23589;BME280;11972;48.078;11.876;2023-11-19T01:58:58;95497.78;;;5.77;100.00
23589;BME280;11972;48.078;11.876;2023-11-19T02:02:59;95483.22;;;5.82;100.00
23589;BME280;11972;48.078;11.876;2023-11-19T02:06:59;95479.84;;;5.90;100.00
23589;BME280;11972;48.078;11.876;2023-11-19T02:10:59;95479.84;;;5.90;100.00
23589;BME280;11972;48.078;11.876;2023-11-19T02:15:00;95485.31;;;5.96;100.00
23589;BME280;11972;48.078;11.876;2023-11-19T02:19:00;95475.66;;;5.97;100.00
23589;BME280;11972;48.078;11.876;2023-11-19T02:23:01;95460.38;;;5.92;100.00
23589;BME280;11972;48.078;11.876;2023-11-19T02:27:12;95446.97;;;5.95;100.00
23589;BME280;11972;48.078;11.876;2023-11-19T02:31:16;95439.78;;;5.97;100.00
23589;BME280;11972;48.078;11.876;2023-11-19T02:35:16;95433.25;;;6.02;100.00
23589;BME280;11972;48.078;11.876;2023-11-19T02:39:16;95412.94;;;6.04;100.00
23589;BME280;11972;48.078;11.876;2023-11-19T02:43:21;95419.81;;;6.05;100.00
23589;BME280;11972;48.078;11.876;2023-11-19T02:47:21;95409.00;;;6.08;100.00
23589;BME280;11972;48.078;11.876;2023-11-19T02:51:24;95409.03;;;6.16;100.00
23589;BME280;11972;48.078;11.876;2023-11-19T02:55:24;95407.75;;;6.20;100.00
23589;BME280;11972;48.078;11.876;2023-11-19T02:59:30;95398.59;;;6.24;100.00
23589;BME280;11972;48.078;11.876;2023-11-19T03:03:39;95386.66;;;6.30;100.00
23589;BME280;11972;48.078;11.876;2023-11-19T03:07:43;95386.66;;;6.30;100.00
23589;BME280;11972;48.078;11.876;2023-11-19T03:11:44;95379.59;;;6.22;100.00
23589;BME280;11972;48.078;11.876;2023-11-19T03:15:44;95375.63;;;6.18;100.00
23589;BME280;11972;48.078;11.876;2023-11-19T03:19:45;95371.72;;;6.22;100.00
23589;BME280;11972;48.078;11.876;2023-11-19T03:23:45;95382.84;;;6.24;100.00
23589;BME280;11972;48.078;11.876;2023-11-19T03:27:46;95368.41;;;6.20;100.00
23589;BME280;11972;48.078;11.876;2023-11-19T03:31:46;95369.56;;;6.17;100.00
23589;BME280;11972;48.078;11.876;2023-11-19T03:35:46;95355.94;;;6.14;100.00
23589;BME280;11972;48.078;11.876;2023-11-19T03:39:47;95362.16;;;6.13;100.00
23589;BME280;11972;48.078;11.876;2023-11-19T03:43:47;95358.88;;;6.11;100.00
23589;BME280;11972;48.078;11.876;2023-11-19T03:47:47;95355.28;;;6.12;100.00
23589;BME280;11972;48.078;11.876;2023-11-19T03:51:49;95354.28;;;6.13;100.00
23589;BME280;11972;48.078;11.876;2023-11-19T03:55:50;95367.25;;;6.14;100.00
23589;BME280;11972;48.078;11.876;2023-11-19T03:59:50;95364.50;;;6.24;100.00
23589;BME280;11972;48.078;11.876;2023-11-19T04:03:50;95360.25;;;6.31;100.00
23589;BME280;11972;48.078;11.876;2023-11-19T04:07:51;95361.91;;;6.40;100.00
23589;BME280;11972;48.078;11.876;2023-11-19T04:11:51;95356.34;;;6.43;100.00
23589;BME280;11972;48.078;11.876;2023-11-19T04:15:52;95358.31;;;6.41;100.00
23589;BME280;11972;48.078;11.876;2023-11-19T04:19:52;95346.69;;;6.44;100.00
23589;BME280;11972;48.078;11.876;2023-11-19T04:23:53;95354.06;;;6.49;100.00
23589;BME280;11972;48.078;11.876;2023-11-19T04:27:53;95366.88;;;6.60;100.00
23589;BME280;11972;48.078;11.876;2023-11-19T04:31:53;95363.13;;;6.70;100.00
23589;BME280;11972;48.078;11.876;2023-11-19T04:35:54;95370.84;;;6.72;100.00
23589;BME280;11972;48.078;11.876;2023-11-19T04:39:54;95368.22;;;6.72;100.00
23589;BME280;11972;48.078;11.876;2023-11-19T04:43:55;95364.28;;;6.76;100.00
23589;BME280;11972;48.078;11.876;2023-11-19T04:47:55;95375.13;;;6.81;100.00
23589;BME280;11972;48.078;11.876;2023-11-19T04:51:55;95368.88;;;6.90;100.00
23589;BME280;11972;48.078;11.876;2023-11-19T04:55:56;95366.25;;;6.82;100.00
23589;BME280;11972;48.078;11.876;2023-11-19T04:59:56;95370.34;;;6.68;100.00
23589;BME280;11972;48.078;11.876;2023-11-19T05:03:57;95366.91;;;6.68;100.00
23589;BME280;11972;48.078;11.876;2023-11-19T05:08:00;95378.75;;;7.13;100.00
23589;BME280;11972;48.078;11.876;2023-11-19T05:12:01;95388.53;;;7.68;100.00
23589;BME280;11972;48.078;11.876;2023-11-19T05:16:02;95389.28;;;8.01;100.00
23589;BME280;11972;48.078;11.876;2023-11-19T05:20:03;95397.91;;;8.26;100.00
23589;BME280;11972;48.078;11.876;2023-11-19T05:24:03;95396.88;;;8.43;100.00
23589;BME280;11972;48.078;11.876;2023-11-19T05:28:07;95399.13;;;8.55;100.00
23589;BME280;11972;48.078;11.876;2023-11-19T05:32:07;95396.22;;;8.41;100.00
23589;BME280;11972;48.078;11.876;2023-11-19T05:36:08;95413.34;;;8.37;100.00
23589;BME280;11972;48.078;11.876;2023-11-19T05:40:08;95419.53;;;8.53;100.00
23589;BME280;11972;48.078;11.876;2023-11-19T05:44:14;95415.13;;;8.76;100.00
23589;BME280;11972;48.078;11.876;2023-11-19T05:48:14;95420.28;;;8.92;100.00
23589;BME280;11972;48.078;11.876;2023-11-19T05:52:15;95418.06;;;9.04;100.00
23589;BME280;11972;48.078;11.876;2023-11-19T05:56:15;95410.78;;;9.14;100.00
23589;BME280;11972;48.078;11.876;2023-11-19T06:00:21;95407.06;;;9.24;100.00
23589;BME280;11972;48.078;11.876;2023-11-19T06:04:21;95405.53;;;9.29;100.00
23589;BME280;11972;48.078;11.876;2023-11-19T06:08:22;95412.56;;;9.37;100.00
23589;BME280;11972;48.078;11.876;2023-11-19T06:12:22;95407.75;;;9.40;100.00
23589;BME280;11972;48.078;11.876;2023-11-19T06:16:23;95401.47;;;9.41;100.00
23589;BME280;11972;48.078;11.876;2023-11-19T06:20:23;95400.13;;;9.45;100.00
23589;BME280;11972;48.078;11.876;2023-11-19T06:24:23;95406.69;;;9.50;100.00
23589;BME280;11972;48.078;11.876;2023-11-19T06:28:24;95416.88;;;9.53;100.00
23589;BME280;11972;48.078;11.876;2023-11-19T06:32:25;95415.53;;;9.57;100.00
23589;BME280;11972;48.078;11.876;2023-11-19T06:36:25;95396.72;;;9.60;100.00
23589;BME280;11972;48.078;11.876;2023-11-19T06:40:26;95400.00;;;9.62;100.00
23589;BME280;11972;48.078;11.876;2023-11-19T06:44:27;95398.00;;;9.64;100.00
23589;BME280;11972;48.078;11.876;2023-11-19T06:48:27;95404.56;;;9.68;100.00
23589;BME280;11972;48.078;11.876;2023-11-19T06:52:27;95409.50;;;9.71;100.00
23589;BME280;11972;48.078;11.876;2023-11-19T06:56:28;95403.00;;;9.74;100.00
23589;BME280;11972;48.078;11.876;2023-11-19T07:00:28;95407.13;;;9.76;100.00
23589;BME280;11972;48.078;11.876;2023-11-19T07:04:28;95401.50;;;9.79;100.00
23589;BME280;11972;48.078;11.876;2023-11-19T07:08:28;95414.50;;;9.81;100.00
23589;BME280;11972;48.078;11.876;2023-11-19T07:12:29;95414.13;;;9.84;100.00
23589;BME280;11972;48.078;11.876;2023-11-19T07:16:29;95420.50;;;9.89;100.00
23589;BME280;11972;48.078;11.876;2023-11-19T07:20:29;95412.25;;;9.92;100.00
23589;BME280;11972;48.078;11.876;2023-11-19T07:24:31;95423.41;;;9.94;100.00
23589;BME280;11972;48.078;11.876;2023-11-19T07:28:31;95419.25;;;10.00;100.00
23589;BME280;11972;48.078;11.876;2023-11-19T07:32:31;95420.69;;;10.03;100.00
23589;BME280;11972;48.078;11.876;2023-11-19T07:36:32;95416.06;;;10.05;100.00
23589;BME280;11972;48.078;11.876;2023-11-19T07:40:33;95419.97;;;10.09;100.00
23589;BME280;11972;48.078;11.876;2023-11-19T07:44:33;95425.06;;;10.10;100.00
23589;BME280;11972;48.078;11.876;2023-11-19T07:48:33;95432.44;;;10.15;100.00
23589;BME280;11972;48.078;11.876;2023-11-19T07:52:35;95427.25;;;10.22;100.00
23589;BME280;11972;48.078;11.876;2023-11-19T07:56:35;95442.78;;;10.25;100.00
23589;BME280;11972;48.078;11.876;2023-11-19T08:00:35;95438.31;;;10.25;100.00
23589;BME280;11972;48.078;11.876;2023-11-19T08:04:36;95441.09;;;10.24;100.00
23589;BME280;11972;48.078;11.876;2023-11-19T08:08:36;95440.28;;;10.23;100.00
23589;BME280;11972;48.078;11.876;2023-11-19T08:12:38;95427.75;;;10.25;100.00
23589;BME280;11972;48.078;11.876;2023-11-19T08:16:41;95440.75;;;10.27;100.00
23589;BME280;11972;48.078;11.876;2023-11-19T08:20:41;95449.50;;;10.27;100.00
23589;BME280;11972;48.078;11.876;2023-11-19T08:24:44;95434.31;;;10.29;100.00
23589;BME280;11972;48.078;11.876;2023-11-19T08:28:44;95435.56;;;10.33;100.00
23589;BME280;11972;48.078;11.876;2023-11-19T08:32:44;95442.13;;;10.37;100.00
23589;BME280;11972;48.078;11.876;2023-11-19T08:36:45;95449.66;;;10.40;100.00
23589;BME280;11972;48.078;11.876;2023-11-19T08:40:46;95448.31;;;10.44;100.00
23589;BME280;11972;48.078;11.876;2023-11-19T08:44:49;95445.50;;;10.46;100.00
23589;BME280;11972;48.078;11.876;2023-11-19T08:48:50;95447.13;;;10.47;100.00
23589;BME280;11972;48.078;11.876;2023-11-19T08:52:51;95444.69;;;10.46;100.00
23589;BME280;11972;48.078;11.876;2023-11-19T08:56:52;95443.03;;;10.44;100.00
23589;BME280;11972;48.078;11.876;2023-11-19T09:00:53;95444.69;;;10.46;100.00
23589;BME280;11972;48.078;11.876;2023-11-19T09:04:53;95445.94;;;10.50;100.00
23589;BME280;11972;48.078;11.876;2023-11-19T09:08:53;95442.19;;;10.59;100.00
23589;BME280;11972;48.078;11.876;2023-11-19T09:12:58;95447.66;;;10.72;100.00
23589;BME280;11972;48.078;11.876;2023-11-19T09:16:58;95435.97;;;10.81;100.00
23589;BME280;11972;48.078;11.876;2023-11-19T09:20:59;95442.25;;;10.80;100.00
23589;BME280;11972;48.078;11.876;2023-11-19T09:25:00;95445.25;;;10.77;100.00
23589;BME280;11972;48.078;11.876;2023-11-19T09:29:00;95453.19;;;10.77;100.00
23589;BME280;11972;48.078;11.876;2023-11-19T09:33:01;95452.47;;;10.83;100.00
23589;BME280;11972;48.078;11.876;2023-11-19T09:37:01;95452.53;;;10.90;100.00
23589;BME280;11972;48.078;11.876;2023-11-19T09:41:04;95446.59;;;11.03;100.00
23589;BME280;11972;48.078;11.876;2023-11-19T09:45:13;95459.28;;;11.14;100.00
23589;BME280;11972;48.078;11.876;2023-11-19T09:49:14;95460.75;;;11.16;100.00
23589;BME280;11972;48.078;11.876;2023-11-19T09:53:17;95443.44;;;11.14;100.00
23589;BME280;11972;48.078;11.876;2023-11-19T09:57:20;95445.06;;;11.15;100.00
23589;BME280;11972;48.078;11.876;2023-11-19T10:01:21;95442.25;;;11.16;100.00
23589;BME280;11972;48.078;11.876;2023-11-19T10:05:22;95448.81;;;11.21;100.00
23589;BME280;11972;48.078;11.876;2023-11-19T10:09:23;95433.63;;;11.29;100.00
23589;BME280;11972;48.078;11.876;2023-11-19T10:13:28;95441.31;;;11.46;100.00
23589;BME280;11972;48.078;11.876;2023-11-19T10:17:29;95432.34;;;11.68;100.00
23589;BME280;11972;48.078;11.876;2023-11-19T10:21:32;95427.06;;;11.89;100.00
23589;BME280;11972;48.078;11.876;2023-11-19T10:25:33;95417.31;;;11.97;100.00
23589;BME280;11972;48.078;11.876;2023-11-19T10:29:37;95416.59;;;12.09;100.00
23589;BME280;11972;48.078;11.876;2023-11-19T10:33:40;95423.09;;;12.07;100.00
23589;BME280;11972;48.078;11.876;2023-11-19T10:37:41;95413.78;;;12.11;100.00
23589;BME280;11972;48.078;11.876;2023-11-19T10:41:43;95407.31;;;12.20;100.00
23589;BME280;11972;48.078;11.876;2023-11-19T10:45:52;95404.44;;;12.22;100.00
23589;BME280;11972;48.078;11.876;2023-11-19T10:49:53;95401.69;;;12.36;100.00
23589;BME280;11972;48.078;11.876;2023-11-19T10:53:54;95400.97;;;12.56;100.00
23589;BME280;11972;48.078;11.876;2023-11-19T10:57:59;95392.84;;;12.71;100.00
23589;BME280;11972;48.078;11.876;2023-11-19T11:02:03;95387.44;;;12.99;100.00
23589;BME280;11972;48.078;11.876;2023-11-19T11:06:08;95390.16;;;13.19;100.00
23589;BME280;11972;48.078;11.876;2023-11-19T11:10:10;95385.69;;;13.32;100.00
23589;BME280;11972;48.078;11.876;2023-11-19T11:14:16;95376.94;;;13.32;100.00
23589;BME280;11972;48.078;11.876;2023-11-19T11:18:18;95374.47;;;13.24;100.00
23589;BME280;11972;48.078;11.876;2023-11-19T11:22:20;95385.44;;;13.14;100.00
23589;BME280;11972;48.078;11.876;2023-11-19T11:27:00;95379.94;;;13.15;100.00
23589;BME280;11972;48.078;11.876;2023-11-19T11:35:32;95371.03;;;13.30;100.00
23589;BME280;11972;48.078;11.876;2023-11-19T11:39:36;95364.06;;;13.49;100.00
23589;BME280;11972;48.078;11.876;2023-11-19T11:43:47;95371.44;;;13.67;100.00
23589;BME280;11972;48.078;11.876;2023-11-19T11:52:00;95376.28;;;14.03;100.00
23589;BME280;11972;48.078;11.876;2023-11-19T11:56:01;95357.88;;;14.28;100.00
23589;BME280;11972;48.078;11.876;2023-11-19T12:00:03;95362.69;;;14.57;100.00
23589;BME280;11972;48.078;11.876;2023-11-19T12:04:05;95361.41;;;14.73;100.00
23589;BME280;11972;48.078;11.876;2023-11-19T12:08:06;95366.91;;;14.78;100.00
23589;BME280;11972;48.078;11.876;2023-11-19T12:12:13;95354.59;;;14.84;100.00
23589;BME280;11972;48.078;11.876;2023-11-19T12:16:17;95367.00;;;14.97;100.00
23589;BME280;11972;48.078;11.876;2023-11-19T12:20:19;95364.13;;;14.98;100.00
23589;BME280;11972;48.078;11.876;2023-11-19T12:24:21;95357.31;;;15.09;100.00
23589;BME280;11972;48.078;11.876;2023-11-19T12:28:21;95355.59;;;14.89;100.00
23589;BME280;11972;48.078;11.876;2023-11-19T12:32:24;95358.91;;;14.78;100.00
23589;BME280;11972;48.078;11.876;2023-11-19T12:36:25;95356.22;;;14.85;100.00
23589;BME280;11972;48.078;11.876;2023-11-19T12:40:25;95357.78;;;14.99;100.00
23589;BME280;11972;48.078;11.876;2023-11-19T12:44:25;95359.06;;;14.90;100.00
23589;BME280;11972;48.078;11.876;2023-11-19T12:48:26;95349.56;;;14.69;100.00
23589;BME280;11972;48.078;11.876;2023-11-19T12:52:26;95347.97;;;14.55;100.00
23589;BME280;11972;48.078;11.876;2023-11-19T12:56:27;95360.88;;;14.45;100.00
23589;BME280;11972;48.078;11.876;2023-11-19T13:00:27;95346.56;;;14.46;100.00
23589;BME280;11972;48.078;11.876;2023-11-19T13:04:29;95347.16;;;14.48;100.00
23589;BME280;11972;48.078;11.876;2023-11-19T13:08:39;95346.84;;;14.24;100.00
23589;BME280;11972;48.078;11.876;2023-11-19T13:12:40;95342.34;;;14.18;100.00
23589;BME280;11972;48.078;11.876;2023-11-19T13:16:40;95342.34;;;14.18;100.00
23589;BME280;11972;48.078;11.876;2023-11-19T13:20:42;95339.06;;;14.29;100.00
23589;BME280;11972;48.078;11.876;2023-11-19T13:24:43;95341.06;;;14.40;100.00
23589;BME280;11972;48.078;11.876;2023-11-19T13:28:43;95333.06;;;14.54;100.00
23589;BME280;11972;48.078;11.876;2023-11-19T13:32:44;95333.88;;;14.54;100.00
23589;BME280;11972;48.078;11.876;2023-11-19T13:36:46;95330.00;;;14.44;100.00
23589;BME280;11972;48.078;11.876;2023-11-19T13:40:46;95328.59;;;14.34;100.00
23589;BME280;11972;48.078;11.876;2023-11-19T13:44:47;95336.41;;;14.29;100.00
23589;BME280;11972;48.078;11.876;2023-11-19T13:48:47;95327.56;;;14.35;100.00
23589;BME280;11972;48.078;11.876;2023-11-19T13:52:49;95334.56;;;14.30;100.00
23589;BME280;11972;48.078;11.876;2023-11-19T13:56:50;95332.97;;;14.09;100.00
23589;BME280;11972;48.078;11.876;2023-11-19T14:00:54;95341.59;;;13.91;100.00
23589;BME280;11972;48.078;11.876;2023-11-19T14:04:54;95339.34;;;13.81;100.00
23589;BME280;11972;48.078;11.876;2023-11-19T14:08:55;95323.66;;;13.73;100.00
23589;BME280;11972;48.078;11.876;2023-11-19T14:12:55;95325.69;;;13.78;100.00
23589;BME280;11972;48.078;11.876;2023-11-19T14:16:55;95333.03;;;13.76;100.00
23589;BME280;11972;48.078;11.876;2023-11-19T14:20:56;95334.69;;;13.70;100.00
23589;BME280;11972;48.078;11.876;2023-11-19T14:24:56;95317.94;;;13.70;100.00
23589;BME280;11972;48.078;11.876;2023-11-19T14:28:56;95319.78;;;13.69;100.00
23589;BME280;11972;48.078;11.876;2023-11-19T14:32:57;95324.09;;;13.70;100.00
23589;BME280;11972;48.078;11.876;2023-11-19T14:36:58;95326.94;;;13.62;100.00
23589;BME280;11972;48.078;11.876;2023-11-19T14:41:00;95319.19;;;13.54;100.00
23589;BME280;11972;48.078;11.876;2023-11-19T14:45:01;95315.53;;;13.42;100.00
23589;BME280;11972;48.078;11.876;2023-11-19T14:49:01;95319.19;;;13.34;100.00
23589;BME280;11972;48.078;11.876;2023-11-19T14:53:02;95320.63;;;13.23;100.00
23589;BME280;11972;48.078;11.876;2023-11-19T14:57:04;95320.16;;;13.20;100.00
23589;BME280;11972;48.078;11.876;2023-11-19T15:01:05;95306.28;;;13.11;100.00
23589;BME280;11972;48.078;11.876;2023-11-19T15:05:06;95300.78;;;13.06;100.00
23589;BME280;11972;48.078;11.876;2023-11-19T15:09:09;95317.47;;;12.86;100.00
23589;BME280;11972;48.078;11.876;2023-11-19T15:13:16;95307.41;;;12.49;100.00
23589;BME280;11972;48.078;11.876;2023-11-19T15:17:16;95310.34;;;12.19;100.00
23589;BME280;11972;48.078;11.876;2023-11-19T15:21:20;95308.56;;;11.91;100.00
23589;BME280;11972;48.078;11.876;2023-11-19T15:25:20;95301.88;;;11.61;100.00
23589;BME280;11972;48.078;11.876;2023-11-19T15:29:21;95299.84;;;11.35;100.00
23589;BME280;11972;48.078;11.876;2023-11-19T15:33:24;95295.78;;;11.11;100.00
23589;BME280;11972;48.078;11.876;2023-11-19T15:37:25;95304.19;;;10.93;100.00
23589;BME280;11972;48.078;11.876;2023-11-19T15:41:25;95309.53;;;10.78;100.00
23589;BME280;11972;48.078;11.876;2023-11-19T15:45:27;95318.97;;;10.66;100.00
23589;BME280;11972;48.078;11.876;2023-11-19T15:49:28;95319.25;;;10.56;100.00
23589;BME280;11972;48.078;11.876;2023-11-19T15:53:29;95321.19;;;10.48;100.00
23589;BME280;11972;48.078;11.876;2023-11-19T15:57:31;95328.31;;;10.32;100.00
23589;BME280;11972;48.078;11.876;2023-11-19T16:01:31;95334.69;;;10.23;100.00
23589;BME280;11972;48.078;11.876;2023-11-19T16:05:33;95338.63;;;10.12;100.00
23589;BME280;11972;48.078;11.876;2023-11-19T16:09:34;95338.19;;;10.09;100.00
23589;BME280;11972;48.078;11.876;2023-11-19T16:13:34;95342.69;;;10.15;100.00
23589;BME280;11972;48.078;11.876;2023-11-19T16:17:35;95341.06;;;10.43;100.00
23589;BME280;11972;48.078;11.876;2023-11-19T16:21:35;95340.97;;;10.73;100.00
23589;BME280;11972;48.078;11.876;2023-11-19T16:25:36;95340.44;;;10.99;100.00
23589;BME280;11972;48.078;11.876;2023-11-19T16:29:38;95347.47;;;11.13;100.00
23589;BME280;11972;48.078;11.876;2023-11-19T16:33:38;95337.31;;;11.17;100.00
23589;BME280;11972;48.078;11.876;2023-11-19T16:37:39;95340.03;;;11.02;100.00
23589;BME280;11972;48.078;11.876;2023-11-19T16:41:40;95329.66;;;10.79;100.00
23589;BME280;11972;48.078;11.876;2023-11-19T16:45:40;95324.97;;;10.60;100.00
23589;BME280;11972;48.078;11.876;2023-11-19T16:49:40;95318.50;;;10.41;100.00
23589;BME280;11972;48.078;11.876;2023-11-19T16:53:46;95316.56;;;10.20;100.00
23589;BME280;11972;48.078;11.876;2023-11-19T16:57:47;95319.97;;;9.99;100.00
23589;BME280;11972;48.078;11.876;2023-11-19T17:01:47;95322.38;;;9.79;100.00
23589;BME280;11972;48.078;11.876;2023-11-19T17:05:48;95325.44;;;9.68;100.00
23589;BME280;11972;48.078;11.876;2023-11-19T17:09:49;95327.44;;;9.51;100.00
23589;BME280;11972;48.078;11.876;2023-11-19T17:13:49;95336.59;;;9.40;100.00
23589;BME280;11972;48.078;11.876;2023-11-19T17:17:49;95337.94;;;9.36;100.00
23589;BME280;11972;48.078;11.876;2023-11-19T17:21:50;95340.03;;;9.26;100.00
23589;BME280;11972;48.078;11.876;2023-11-19T17:25:50;95340.19;;;9.25;100.00
23589;BME280;11972;48.078;11.876;2023-11-19T17:29:52;95341.72;;;9.19;100.00
23589;BME280;11972;48.078;11.876;2023-11-19T17:33:52;95350.97;;;9.15;100.00
23589;BME280;11972;48.078;11.876;2023-11-19T17:37:52;95357.31;;;9.06;100.00
23589;BME280;11972;48.078;11.876;2023-11-19T17:41:53;95358.72;;;8.93;100.00
23589;BME280;11972;48.078;11.876;2023-11-19T17:45:53;95369.94;;;8.87;100.00
23589;BME280;11972;48.078;11.876;2023-11-19T17:49:56;95354.88;;;8.81;100.00
23589;BME280;11972;48.078;11.876;2023-11-19T17:53:57;95376.22;;;8.86;100.00
23589;BME280;11972;48.078;11.876;2023-11-19T17:57:57;95355.22;;;9.01;100.00
23589;BME280;11972;48.078;11.876;2023-11-19T18:01:58;95349.56;;;9.04;100.00
23589;BME280;11972;48.078;11.876;2023-11-19T18:05:59;95351.75;;;9.01;100.00
23589;BME280;11972;48.078;11.876;2023-11-19T18:10:00;95360.03;;;8.98;100.00
23589;BME280;11972;48.078;11.876;2023-11-19T18:14:00;95360.38;;;8.94;100.00
23589;BME280;11972;48.078;11.876;2023-11-19T18:18:00;95358.66;;;9.02;100.00
23589;BME280;11972;48.078;11.876;2023-11-19T18:22:01;95361.88;;;9.12;100.00
23589;BME280;11972;48.078;11.876;2023-11-19T18:26:03;95374.75;;;9.07;100.00
23589;BME280;11972;48.078;11.876;2023-11-19T18:30:06;95361.78;;;9.05;100.00
23589;BME280;11972;48.078;11.876;2023-11-19T18:34:06;95365.56;;;9.03;100.00
23589;BME280;11972;48.078;11.876;2023-11-19T18:38:08;95365.16;;;9.14;100.00
23589;BME280;11972;48.078;11.876;2023-11-19T18:42:09;95362.22;;;9.09;100.00
23589;BME280;11972;48.078;11.876;2023-11-19T18:46:10;95361.06;;;9.11;100.00
23589;BME280;11972;48.078;11.876;2023-11-19T18:50:10;95354.56;;;8.99;100.00
23589;BME280;11972;48.078;11.876;2023-11-19T18:54:11;95367.38;;;8.79;100.00
23589;BME280;11972;48.078;11.876;2023-11-19T18:58:11;95372.06;;;8.69;100.00
23589;BME280;11972;48.078;11.876;2023-11-19T19:02:12;95359.28;;;8.58;100.00
23589;BME280;11972;48.078;11.876;2023-11-19T19:06:14;95364.63;;;8.41;100.00
23589;BME280;11972;48.078;11.876;2023-11-19T19:10:15;95368.91;;;8.34;100.00
23589;BME280;11972;48.078;11.876;2023-11-19T19:14:15;95365.34;;;8.27;100.00
23589;BME280;11972;48.078;11.876;2023-11-19T19:18:16;95374.25;;;8.18;100.00
23589;BME280;11972;48.078;11.876;2023-11-19T19:22:17;95376.25;;;8.16;100.00
23589;BME280;11972;48.078;11.876;2023-11-19T19:26:17;95387.19;;;8.36;100.00
23589;BME280;11972;48.078;11.876;2023-11-19T19:30:18;95394.59;;;8.40;100.00
23589;BME280;11972;48.078;11.876;2023-11-19T19:34:18;95392.91;;;8.48;100.00
23589;BME280;11972;48.078;11.876;2023-11-19T19:38:19;95411.38;;;8.39;100.00
23589;BME280;11972;48.078;11.876;2023-11-19T19:42:19;95393.13;;;8.30;100.00
23589;BME280;11972;48.078;11.876;2023-11-19T19:46:20;95404.63;;;8.29;100.00
23589;BME280;11972;48.078;11.876;2023-11-19T19:50:20;95398.56;;;8.28;100.00
23589;BME280;11972;48.078;11.876;2023-11-19T19:54:21;95409.56;;;8.32;100.00
23589;BME280;11972;48.078;11.876;2023-11-19T19:58:21;95401.69;;;8.32;100.00
23589;BME280;11972;48.078;11.876;2023-11-19T20:02:22;95410.41;;;8.24;100.00
23589;BME280;11972;48.078;11.876;2023-11-19T20:06:22;95416.28;;;8.34;100.00
23589;BME280;11972;48.078;11.876;2023-11-19T20:10:24;95408.88;;;8.46;100.00
23589;BME280;11972;48.078;11.876;2023-11-19T20:14:24;95417.88;;;8.52;100.00
23589;BME280;11972;48.078;11.876;2023-11-19T20:18:27;95412.63;;;8.52;100.00
23589;BME280;11972;48.078;11.876;2023-11-19T20:22:31;95416.44;;;8.49;100.00
23589;BME280;11972;48.078;11.876;2023-11-19T20:26:31;95425.13;;;8.50;100.00
23589;BME280;11972;48.078;11.876;2023-11-19T20:30:31;95424.81;;;8.53;100.00
23589;BME280;11972;48.078;11.876;2023-11-19T20:34:32;95422.84;;;8.47;100.00
23589;BME280;11972;48.078;11.876;2023-11-19T20:38:35;95425.84;;;8.43;100.00
23589;BME280;11972;48.078;11.876;2023-11-19T20:42:39;95431.78;;;8.37;100.00
23589;BME280;11972;48.078;11.876;2023-11-19T20:46:39;95437.03;;;8.37;100.00
23589;BME280;11972;48.078;11.876;2023-11-19T20:50:40;95449.19;;;8.38;100.00
23589;BME280;11972;48.078;11.876;2023-11-19T20:54:42;95436.00;;;8.47;100.00
23589;BME280;11972;48.078;11.876;2023-11-19T20:58:42;95428.84;;;8.63;100.00
23589;BME280;11972;48.078;11.876;2023-11-19T21:02:43;95428.31;;;8.68;100.00